createdAt,value
2023-05-19T00:00:34.927Z,62.44
2023-05-19T00:02:37.389Z,61.43
2023-05-19T00:04:39.518Z,61.45
2023-05-19T00:06:42.145Z,61.64
2023-05-19T00:08:43.944Z,61.84
2023-05-19T00:10:47.631Z,61.89
2023-05-19T00:12:49.806Z,61.84
2023-05-19T00:14:52.794Z,62.33
2023-05-19T00:16:55.195Z,62.77
2023-05-19T00:18:57.692Z,62.57
2023-05-19T00:20:59.320Z,62.49
2023-05-19T00:23:01.080Z,62.01
2023-05-19T00:25:02.947Z,61.33
2023-05-19T00:27:06.531Z,61.94
2023-05-19T00:29:08.380Z,61.51
2023-05-19T00:31:10.151Z,61.56
2023-05-19T00:33:11.858Z,61.87
2023-05-19T00:35:13.965Z,61.86
2023-05-19T00:37:15.625Z,61.56
2023-05-19T00:39:17.246Z,60.94
2023-05-19T00:41:18.993Z,60.82
2023-05-19T00:43:22.329Z,60.73
2023-05-19T00:45:25.695Z,61.00
2023-05-19T00:47:27.353Z,62.17
2023-05-19T00:49:28.979Z,62.32
2023-05-19T00:51:30.784Z,62.34
2023-05-19T00:53:34.128Z,61.82
2023-05-19T00:55:37.816Z,61.28
2023-05-19T00:57:39.906Z,61.60
2023-05-19T00:59:42.988Z,61.32
2023-05-19T01:01:45.810Z,61.60
2023-05-19T01:03:50.752Z,61.75
2023-05-19T01:05:52.713Z,61.49
2023-05-19T01:07:55.590Z,61.05
2023-05-19T01:09:58.002Z,61.07
2023-05-19T01:12:00.476Z,61.41
2023-05-19T01:14:02.459Z,61.33
2023-05-19T01:16:10.964Z,61.41
2023-05-19T01:18:16.394Z,61.11
2023-05-19T01:20:22.578Z,62.42
2023-05-19T01:22:40.022Z,60.95
2023-05-19T01:25:01.858Z,60.92
2023-05-19T01:27:30.346Z,60.59
2023-05-19T01:29:50.752Z,60.71
2023-05-19T01:31:58.381Z,61.97
2023-05-19T01:34:00.813Z,62.64
2023-05-19T01:36:07.773Z,61.81
2023-05-19T01:38:13.169Z,62.30
2023-05-19T01:40:15.515Z,62.71
2023-05-19T01:42:17.960Z,62.58
2023-05-19T01:44:19.976Z,62.12
2023-05-19T01:46:22.879Z,62.40
2023-05-19T01:48:27.287Z,62.39
2023-05-19T01:50:29.863Z,62.50
2023-05-19T01:52:31.877Z,62.68
2023-05-19T01:54:33.704Z,63.15
2023-05-19T01:56:46.658Z,61.70
2023-05-19T01:58:58.839Z,62.47
2023-05-19T02:01:07.900Z,62.19
2023-05-19T02:03:22.821Z,61.93
2023-05-19T02:05:33.613Z,62.53
2023-05-19T02:07:42.192Z,62.06
2023-05-19T02:09:53.374Z,61.16
2023-05-19T02:11:59.829Z,62.48
2023-05-19T02:14:04.345Z,62.85
2023-05-19T02:16:07.610Z,63.86
2023-05-19T02:18:11.551Z,63.47
2023-05-19T02:20:13.649Z,63.98
2023-05-19T02:22:16.848Z,63.09
2023-05-19T02:24:19.545Z,63.54
2023-05-19T02:26:21.204Z,64.44
2023-05-19T02:28:23.364Z,64.01
2023-05-19T02:30:25.035Z,64.53
2023-05-19T02:32:26.815Z,64.59
2023-05-19T02:34:28.656Z,63.76
2023-05-19T02:36:34.773Z,63.83
2023-05-19T02:38:37.988Z,63.42
2023-05-19T02:40:39.631Z,63.26
2023-05-19T02:42:41.482Z,63.40
2023-05-19T02:44:43.462Z,62.52
2023-05-19T02:46:45.181Z,63.09
2023-05-19T02:48:47.173Z,62.94
2023-05-19T02:50:49.072Z,63.26
2023-05-19T02:52:50.667Z,62.71
2023-05-19T02:54:53.838Z,63.40
2023-05-19T02:56:55.726Z,64.13
2023-05-19T02:58:57.368Z,64.39
2023-05-19T03:00:59.330Z,63.74
2023-05-19T03:03:01.107Z,63.95
2023-05-19T03:05:03.033Z,63.90
2023-05-19T03:07:05.330Z,64.12
2023-05-19T03:09:06.986Z,64.39
2023-05-19T03:11:10.141Z,64.57
2023-05-19T03:13:12.514Z,63.74
2023-05-19T03:15:14.293Z,63.50
2023-05-19T03:17:16.100Z,63.45
2023-05-19T03:19:17.997Z,63.82
2023-05-19T03:21:19.710Z,63.42
2023-05-19T03:23:21.861Z,63.82
2023-05-19T03:25:24.170Z,63.15
2023-05-19T03:27:27.119Z,63.27
2023-05-19T03:29:29.015Z,62.96
2023-05-19T03:31:30.863Z,63.13
2023-05-19T03:33:32.509Z,63.18
2023-05-19T03:35:34.175Z,63.72
2023-05-19T03:37:36.006Z,64.02
2023-05-19T03:39:38.067Z,63.51
2023-05-19T03:41:39.947Z,63.34
2023-05-19T03:43:43.011Z,63.60
2023-05-19T03:45:44.729Z,63.63
2023-05-19T03:47:46.803Z,63.93
2023-05-19T03:49:48.796Z,63.45
2023-05-19T03:51:50.945Z,63.91
2023-05-19T03:53:52.801Z,64.15
2023-05-19T03:55:54.458Z,63.71
2023-05-19T03:57:56.532Z,64.25
2023-05-19T03:59:59.924Z,64.99
2023-05-19T04:02:01.588Z,65.08
2023-05-19T04:04:03.751Z,65.56
2023-05-19T04:06:05.690Z,65.20
2023-05-19T04:08:07.439Z,65.62
2023-05-19T04:10:10.008Z,65.64
2023-05-19T04:12:11.642Z,66.17
2023-05-19T04:14:13.288Z,65.41
2023-05-19T04:16:16.635Z,66.01
2023-05-19T04:18:18.369Z,67.08
2023-05-19T04:20:20.364Z,67.48
2023-05-19T04:22:22.266Z,67.03
2023-05-19T04:24:24.328Z,68.53
2023-05-19T04:26:26.420Z,68.74
2023-05-19T04:28:28.404Z,69.68
2023-05-19T04:30:30.359Z,69.73
2023-05-19T04:32:33.714Z,70.48
2023-05-19T04:34:35.791Z,71.64
2023-05-19T04:36:37.596Z,71.69
2023-05-19T04:38:39.791Z,71.98
2023-05-19T04:40:41.482Z,71.80
2023-05-19T04:42:43.287Z,72.50
2023-05-19T04:44:45.076Z,72.58
2023-05-19T04:46:46.828Z,73.58
2023-05-19T04:48:50.270Z,73.98
2023-05-19T04:50:51.999Z,73.85
2023-05-19T04:52:53.896Z,74.50
2023-05-19T04:54:55.806Z,74.38
2023-05-19T04:56:57.721Z,75.02
2023-05-19T04:58:59.513Z,74.68
2023-05-19T05:01:01.201Z,74.71
2023-05-19T05:03:02.913Z,74.15
2023-05-19T05:05:07.811Z,73.93
2023-05-19T05:07:09.612Z,74.91
2023-05-19T05:09:11.717Z,75.04
2023-05-19T05:11:14.258Z,74.91
2023-05-19T05:13:16.536Z,74.73
2023-05-19T05:15:19.200Z,73.72
2023-05-19T05:17:21.348Z,73.50
2023-05-19T05:19:24.173Z,73.99
2023-05-19T05:21:28.599Z,73.30
2023-05-19T05:23:31.044Z,72.87
2023-05-19T05:25:34.097Z,73.21
2023-05-19T05:27:37.044Z,72.54
2023-05-19T05:29:38.911Z,72.05
2023-05-19T05:31:40.629Z,71.35
2023-05-19T05:33:43.774Z,70.90
2023-05-19T05:35:45.500Z,71.16
2023-05-19T05:37:48.440Z,70.33
2023-05-19T05:39:50.027Z,70.38
2023-05-19T05:41:51.859Z,70.80
2023-05-19T05:43:53.803Z,69.55
2023-05-19T05:45:57.264Z,69.43
2023-05-19T05:47:59.567Z,68.70
2023-05-19T05:50:01.930Z,68.75
2023-05-19T05:52:06.626Z,67.48
2023-05-19T05:54:12.811Z,67.10
2023-05-19T05:56:15.499Z,66.78
2023-05-19T05:58:17.530Z,66.09
2023-05-19T06:00:20.031Z,65.93
2023-05-19T06:02:22.371Z,65.90
2023-05-19T06:04:25.078Z,65.88
2023-05-19T06:06:26.773Z,65.53
2023-05-19T06:08:28.763Z,63.51
2023-05-19T06:10:32.740Z,63.13
2023-05-19T06:12:35.057Z,62.42
2023-05-19T06:14:36.941Z,61.51
2023-05-19T06:16:38.514Z,60.75
2023-05-19T06:18:40.180Z,60.03
2023-05-19T06:20:42.054Z,59.55
2023-05-19T06:22:44.011Z,60.13
2023-05-19T06:24:45.655Z,58.38
2023-05-19T06:26:50.620Z,57.67
2023-05-19T06:28:52.349Z,56.82
2023-05-19T06:30:55.494Z,56.83
2023-05-19T06:32:57.406Z,56.12
2023-05-19T06:34:59.281Z,56.36
2023-05-19T06:37:01.635Z,55.41
2023-05-19T06:39:03.725Z,55.41
2023-05-19T06:41:05.724Z,55.60
2023-05-19T06:43:09.010Z,55.51
2023-05-19T06:45:12.020Z,55.40
2023-05-19T06:47:13.962Z,55.37
2023-05-19T06:49:15.716Z,54.31
2023-05-19T06:51:19.410Z,53.79
2023-05-19T06:53:21.555Z,53.38
2023-05-19T06:55:23.433Z,52.53
2023-05-19T06:57:25.136Z,52.48
2023-05-19T06:59:28.245Z,52.55
2023-05-19T07:01:29.979Z,52.51
2023-05-19T07:03:31.881Z,52.18
2023-05-19T07:05:33.697Z,51.48
2023-05-19T07:07:35.386Z,51.27
2023-05-19T07:09:37.209Z,51.02
2023-05-19T07:11:38.858Z,50.49
2023-05-19T07:13:40.721Z,49.96
2023-05-19T07:15:43.734Z,49.64
2023-05-19T07:17:45.738Z,49.38
2023-05-19T07:19:47.479Z,49.07
2023-05-19T07:21:49.426Z,48.00
2023-05-19T07:23:51.153Z,48.06
2023-05-19T07:25:54.752Z,47.87
2023-05-19T07:27:56.420Z,47.65
2023-05-19T07:29:58.560Z,46.71
2023-05-19T07:32:03.459Z,47.54
2023-05-19T07:34:05.335Z,46.58
2023-05-19T07:36:07.053Z,46.78
2023-05-19T07:38:08.680Z,45.97
2023-05-19T07:40:11.018Z,44.67
2023-05-19T07:42:12.677Z,44.69
2023-05-19T07:44:14.762Z,43.75
2023-05-19T07:46:16.740Z,44.08
2023-05-19T07:48:19.887Z,43.83
2023-05-19T07:50:21.578Z,43.46
2023-05-19T07:52:23.383Z,43.42
2023-05-19T07:54:25.068Z,43.43
2023-05-19T07:56:26.819Z,43.24
2023-05-19T07:58:28.642Z,42.94
2023-05-19T08:00:30.772Z,41.84
2023-05-19T08:02:32.882Z,41.82
2023-05-19T08:04:38.693Z,43.13
2023-05-19T08:06:40.928Z,41.49
2023-05-19T08:08:42.699Z,41.33
2023-05-19T08:10:44.326Z,41.10
2023-05-19T08:12:46.201Z,40.80
2023-05-19T08:14:48.014Z,40.70
2023-05-19T08:16:49.996Z,40.91
2023-05-19T08:18:51.646Z,42.30
2023-05-19T08:20:55.049Z,41.94
2023-05-19T08:22:58.700Z,42.79
2023-05-19T08:25:00.607Z,42.55
2023-05-19T08:27:02.268Z,42.27
2023-05-19T08:29:03.955Z,42.12
2023-05-19T08:31:05.668Z,41.34
2023-05-19T08:33:07.561Z,41.60
2023-05-19T08:35:10.038Z,41.87
2023-05-19T08:37:13.460Z,41.99
2023-05-19T08:39:15.100Z,42.18
2023-05-19T08:41:17.085Z,41.24
2023-05-19T08:43:19.228Z,41.26
2023-05-19T08:45:20.914Z,41.67
2023-05-19T08:47:23.012Z,41.36
2023-05-19T08:49:28.077Z,42.65
2023-05-19T08:51:39.171Z,42.42
2023-05-19T08:53:49.265Z,42.14
2023-05-19T08:55:58.953Z,41.77
2023-05-19T08:58:01.706Z,41.04
2023-05-19T09:00:05.076Z,41.77
2023-05-19T09:02:07.922Z,40.84
2023-05-19T09:04:10.099Z,41.02
2023-05-19T09:06:12.030Z,41.11
2023-05-19T09:08:13.799Z,40.52
2023-05-19T09:10:16.780Z,40.16
2023-05-19T09:12:18.508Z,40.72
2023-05-19T09:14:20.061Z,40.11
2023-05-19T09:16:21.801Z,39.93
2023-05-19T09:18:25.900Z,39.69
2023-05-19T09:20:30.735Z,40.13
2023-05-19T09:22:32.363Z,40.65
2023-05-19T09:24:34.440Z,39.59
2023-05-19T09:26:39.515Z,39.74
2023-05-19T09:28:41.197Z,38.47
2023-05-19T09:30:42.783Z,38.52
2023-05-19T09:32:44.754Z,37.44
2023-05-19T09:34:47.716Z,37.69
2023-05-19T09:36:49.985Z,38.23
2023-05-19T09:38:51.967Z,37.44
2023-05-19T09:40:57.167Z,37.08
2023-05-19T09:43:00.317Z,36.70
2023-05-19T09:45:03.453Z,34.23
2023-05-19T09:47:05.390Z,33.41
2023-05-19T09:49:09.016Z,32.80
2023-05-19T09:51:11.114Z,31.50
2023-05-19T09:53:14.498Z,31.46
2023-05-19T09:55:16.582Z,31.86
2023-05-19T09:57:18.287Z,31.12
2023-05-19T09:59:24.512Z,32.90
2023-05-19T10:01:26.479Z,31.17
2023-05-19T10:03:28.736Z,32.11
2023-05-19T10:05:32.641Z,32.43
2023-05-19T10:07:34.988Z,31.44
2023-05-19T10:09:37.999Z,31.45
2023-05-19T10:11:40.341Z,31.19
2023-05-19T10:13:42.858Z,31.23
2023-05-19T10:15:58.385Z,32.18
2023-05-19T10:18:02.068Z,31.05
2023-05-19T10:20:04.866Z,30.70
2023-05-19T10:22:06.846Z,30.84
2023-05-19T10:24:09.541Z,30.83
2023-05-19T10:26:14.367Z,30.10
2023-05-19T10:28:20.167Z,31.11
2023-05-19T10:30:27.410Z,31.12
2023-05-19T10:32:33.298Z,30.30
2023-05-19T10:35:01.072Z,32.80
2023-05-19T10:37:12.718Z,30.50
2023-05-19T10:39:21.982Z,31.27
2023-05-19T10:41:29.212Z,30.44
2023-05-19T10:43:47.433Z,31.96
2023-05-19T10:45:52.850Z,30.72
2023-05-19T10:47:56.601Z,30.38
2023-05-19T10:50:00.351Z,30.40
2023-05-19T10:52:02.029Z,30.04
2023-05-19T10:54:07.924Z,30.11
2023-05-19T10:56:09.764Z,29.10
2023-05-19T10:58:11.861Z,28.91
2023-05-19T11:00:27.849Z,31.70
2023-05-19T11:02:42.978Z,32.18
2023-05-19T11:04:51.801Z,30.83
2023-05-19T11:06:54.022Z,29.92
2023-05-19T11:08:58.421Z,29.24
2023-05-19T11:11:12.889Z,31.23
2023-05-19T11:13:22.753Z,30.25
2023-05-19T11:15:27.192Z,28.22
2023-05-19T11:17:29.571Z,28.48
2023-05-19T11:19:32.944Z,27.82
2023-05-19T11:21:50.380Z,31.23
2023-05-19T11:23:52.534Z,29.49
2023-05-19T11:25:54.310Z,29.19
2023-05-19T11:27:56.539Z,29.74
2023-05-19T11:30:00.879Z,28.50
2023-05-19T11:32:02.804Z,29.10
2023-05-19T11:34:04.974Z,29.67
2023-05-19T11:36:07.951Z,28.66
2023-05-19T11:38:11.703Z,31.66
2023-05-19T11:40:15.536Z,31.77
2023-05-19T11:42:17.204Z,32.51
2023-05-19T11:44:18.822Z,32.58
2023-05-19T11:46:21.454Z,32.44
2023-05-19T11:48:23.857Z,30.30
2023-05-19T11:50:26.355Z,32.35
2023-05-19T11:52:27.993Z,31.73
2023-05-19T11:54:31.825Z,29.50
2023-05-19T11:56:34.477Z,32.44
2023-05-19T11:58:37.266Z,32.64
2023-05-19T12:00:40.939Z,32.75
2023-05-19T12:02:43.447Z,31.61
2023-05-19T12:04:45.916Z,31.96
2023-05-19T12:06:49.205Z,31.49
2023-05-19T12:08:51.262Z,31.38
2023-05-19T12:10:54.334Z,31.67
2023-05-19T12:12:57.127Z,31.30
2023-05-19T12:15:02.638Z,31.47
2023-05-19T12:17:11.214Z,33.05
2023-05-19T12:19:13.466Z,31.04
2023-05-19T12:21:16.101Z,30.67
2023-05-19T12:23:18.080Z,30.86
2023-05-19T12:25:20.511Z,30.83
2023-05-19T12:27:25.263Z,31.98
2023-05-19T12:29:28.617Z,30.63
2023-05-19T12:31:30.285Z,30.89
2023-05-19T12:33:33.650Z,31.02
2023-05-19T12:35:37.888Z,31.68
2023-05-19T12:37:41.775Z,31.58
2023-05-19T12:39:44.348Z,31.45
2023-05-19T12:41:46.260Z,31.61
2023-05-19T12:43:49.214Z,31.60
2023-05-19T12:45:51.128Z,31.11
2023-05-19T12:47:53.026Z,31.95
2023-05-19T12:49:55.145Z,31.73
2023-05-19T12:51:56.853Z,32.66
2023-05-19T12:53:58.816Z,31.55
2023-05-19T12:56:00.527Z,32.68
2023-05-19T12:58:05.916Z,31.97
2023-05-19T13:00:17.760Z,33.02
2023-05-19T13:02:19.577Z,31.75
2023-05-19T13:04:21.688Z,31.54
2023-05-19T13:06:24.016Z,31.96
2023-05-19T13:08:25.641Z,30.82
2023-05-19T13:10:28.349Z,31.98
2023-05-19T13:12:30.347Z,31.31
2023-05-19T13:14:32.287Z,31.80
2023-05-19T13:16:35.720Z,31.78
2023-05-19T13:18:37.547Z,32.83
2023-05-19T13:20:41.468Z,32.16
2023-05-19T13:22:43.442Z,32.64
2023-05-19T13:24:45.089Z,32.63
2023-05-19T13:26:46.772Z,32.22
2023-05-19T13:28:48.683Z,32.16
2023-05-19T13:30:50.333Z,31.90
2023-05-19T13:32:54.071Z,31.36
2023-05-19T13:34:56.170Z,31.73
2023-05-19T13:36:57.828Z,32.36
2023-05-19T13:38:59.698Z,32.10
2023-05-19T13:41:01.567Z,32.19
2023-05-19T13:43:04.151Z,32.63
2023-05-19T13:45:07.386Z,30.88
2023-05-19T13:47:09.239Z,32.00
2023-05-19T13:49:12.650Z,32.97
2023-05-19T13:51:14.242Z,32.37
2023-05-19T13:53:15.874Z,31.96
2023-05-19T13:55:18.070Z,32.34
2023-05-19T13:57:20.015Z,32.03
2023-05-19T13:59:21.898Z,32.28
2023-05-19T14:01:23.777Z,31.95
2023-05-19T14:03:25.630Z,31.69
2023-05-19T14:05:29.010Z,31.91
2023-05-19T14:07:31.205Z,32.14
2023-05-19T14:09:33.903Z,31.45
2023-05-19T14:11:35.952Z,32.46
2023-05-19T14:13:41.777Z,31.80
2023-05-19T14:15:44.988Z,31.61
2023-05-19T14:17:46.775Z,31.91
2023-05-19T14:19:48.927Z,31.21
2023-05-19T14:21:53.213Z,31.73
2023-05-19T14:23:55.298Z,30.66
2023-05-19T14:25:57.324Z,30.70
2023-05-19T14:27:58.974Z,30.94
2023-05-19T14:30:01.133Z,30.90
2023-05-19T14:32:03.372Z,30.98
2023-05-19T14:34:05.577Z,30.65
2023-05-19T14:36:07.900Z,29.93
2023-05-19T14:38:11.333Z,30.50
2023-05-19T14:40:13.541Z,30.83
2023-05-19T14:42:15.478Z,29.64
2023-05-19T14:44:17.096Z,30.72
2023-05-19T14:46:18.779Z,29.99
2023-05-19T14:48:20.797Z,30.39
2023-05-19T14:50:22.450Z,30.26
2023-05-19T14:52:24.057Z,29.39
2023-05-19T14:54:27.086Z,29.13
2023-05-19T14:56:29.012Z,29.40
2023-05-19T14:58:30.994Z,29.87
2023-05-19T15:00:34.314Z,30.22
2023-05-19T15:02:36.278Z,31.28
2023-05-19T15:04:37.816Z,30.44
2023-05-19T15:06:39.668Z,30.09
2023-05-19T15:08:41.542Z,29.85
2023-05-19T15:10:48.666Z,30.96
2023-05-19T15:12:50.373Z,29.25
2023-05-19T15:14:52.009Z,30.07
2023-05-19T15:16:53.650Z,30.21
2023-05-19T15:18:55.548Z,30.27
2023-05-19T15:20:57.481Z,30.25
2023-05-19T15:22:59.356Z,30.19
2023-05-19T15:25:01.289Z,31.11
2023-05-19T15:27:04.934Z,30.96
2023-05-19T15:29:06.723Z,30.58
2023-05-19T15:31:08.559Z,30.15
2023-05-19T15:33:10.539Z,31.04
2023-05-19T15:35:12.299Z,30.69
2023-05-19T15:37:14.177Z,30.92
2023-05-19T15:39:15.823Z,30.38
2023-05-19T15:41:17.681Z,31.16
2023-05-19T15:43:21.071Z,31.42
2023-05-19T15:45:23.096Z,30.72
2023-05-19T15:47:24.871Z,31.25
2023-05-19T15:49:26.556Z,31.25
2023-05-19T15:51:28.368Z,31.11
2023-05-19T15:53:30.021Z,31.49
2023-05-19T15:55:31.585Z,31.04
2023-05-19T15:57:33.424Z,31.33
2023-05-19T15:59:36.429Z,31.54
2023-05-19T16:01:38.640Z,30.65
2023-05-19T16:03:40.497Z,31.24
2023-05-19T16:05:42.406Z,31.03
2023-05-19T16:07:44.574Z,31.57
2023-05-19T16:09:46.512Z,31.66
2023-05-19T16:11:48.886Z,31.47
2023-05-19T16:13:50.791Z,30.95
2023-05-19T16:15:54.352Z,31.17
2023-05-19T16:17:56.165Z,32.36
2023-05-19T16:19:57.854Z,32.25
2023-05-19T16:21:59.819Z,32.20
2023-05-19T16:24:01.714Z,31.48
2023-05-19T16:26:03.415Z,31.74
2023-05-19T16:28:05.419Z,31.58
2023-05-19T16:30:08.388Z,31.84
2023-05-19T16:32:11.596Z,31.52
2023-05-19T16:34:13.801Z,31.83
2023-05-19T16:36:15.482Z,31.77
2023-05-19T16:38:17.433Z,31.25
2023-05-19T16:40:19.083Z,32.17
2023-05-19T16:42:20.883Z,31.95
2023-05-19T16:44:22.461Z,31.82
2023-05-19T16:46:24.808Z,32.00
2023-05-19T16:48:27.831Z,32.36
2023-05-19T16:50:29.951Z,32.41
2023-05-19T16:52:31.840Z,32.66
2023-05-19T16:54:33.578Z,32.81
2023-05-19T16:56:35.508Z,33.09
2023-05-19T16:58:37.691Z,33.42
2023-05-19T17:00:39.255Z,33.11
2023-05-19T17:02:41.103Z,33.19
2023-05-19T17:04:44.512Z,32.64
2023-05-19T17:06:46.151Z,32.60
2023-05-19T17:08:48.230Z,32.23
2023-05-19T17:10:50.092Z,32.06
2023-05-19T17:12:51.951Z,32.02
2023-05-19T17:14:53.693Z,31.89
2023-05-19T17:16:55.383Z,32.63
2023-05-19T17:18:57.478Z,32.96
2023-05-19T17:21:00.554Z,32.44
2023-05-19T17:23:02.415Z,33.04
2023-05-19T17:25:05.012Z,32.91
2023-05-19T17:27:06.948Z,34.11
2023-05-19T17:29:08.941Z,34.38
2023-05-19T17:31:11.112Z,34.60
2023-05-19T17:33:13.070Z,35.28
2023-05-19T17:35:14.811Z,34.54
2023-05-19T17:37:18.005Z,35.01
2023-05-19T17:39:19.858Z,35.21
2023-05-19T17:41:21.729Z,35.76
2023-05-19T17:43:23.351Z,35.60
2023-05-19T17:45:25.425Z,35.75
2023-05-19T17:47:27.155Z,35.56
2023-05-19T17:49:29.121Z,35.76
2023-05-19T17:51:32.106Z,36.27
2023-05-19T17:53:36.020Z,36.45
2023-05-19T17:55:38.219Z,36.45
2023-05-19T17:57:43.430Z,36.88
2023-05-19T17:59:45.483Z,36.98
2023-05-19T18:01:47.638Z,37.25
2023-05-19T18:03:50.319Z,37.50
2023-05-19T18:05:53.714Z,37.49
2023-05-19T18:07:58.337Z,37.34
2023-05-19T18:10:03.372Z,37.77
2023-05-19T18:12:05.955Z,38.11
2023-05-19T18:14:07.692Z,38.12
2023-05-19T18:16:09.397Z,38.65
2023-05-19T18:18:11.251Z,38.70
2023-05-19T18:20:13.691Z,39.28
2023-05-19T18:22:15.300Z,39.37
2023-05-19T18:24:16.976Z,39.35
2023-05-19T18:26:20.050Z,39.77
2023-05-19T18:28:21.588Z,39.67
2023-05-19T18:30:23.683Z,39.95
2023-05-19T18:32:25.851Z,39.76
2023-05-19T18:34:27.587Z,40.01
2023-05-19T18:36:29.593Z,40.42
2023-05-19T18:38:31.273Z,40.59
2023-05-19T18:40:33.543Z,40.59
2023-05-19T18:42:36.828Z,40.50
2023-05-19T18:44:38.413Z,40.31
2023-05-19T18:46:40.275Z,40.63
2023-05-19T18:48:41.918Z,41.15
2023-05-19T18:50:43.967Z,40.95
2023-05-19T18:52:46.098Z,41.32
2023-05-19T18:54:48.039Z,41.22
2023-05-19T18:56:50.148Z,41.19
2023-05-19T18:58:53.757Z,41.41
2023-05-19T19:00:55.430Z,41.43
2023-05-19T19:02:57.315Z,41.85
2023-05-19T19:04:59.215Z,41.75
2023-05-19T19:07:01.253Z,42.38
2023-05-19T19:09:02.844Z,42.08
2023-05-19T19:11:04.813Z,42.24
2023-05-19T19:13:06.723Z,42.53
2023-05-19T19:15:11.189Z,43.00
2023-05-19T19:17:14.276Z,43.16
2023-05-19T19:19:16.201Z,43.12
2023-05-19T19:21:17.960Z,43.44
2023-05-19T19:23:19.601Z,43.72
2023-05-19T19:25:23.219Z,44.04
2023-05-19T19:27:25.544Z,44.06
2023-05-19T19:29:27.353Z,44.33
2023-05-19T19:31:30.370Z,44.25
2023-05-19T19:33:32.251Z,44.78
2023-05-19T19:35:34.013Z,44.84
2023-05-19T19:37:35.691Z,45.55
2023-05-19T19:39:37.391Z,45.61
2023-05-19T19:41:39.272Z,45.48
2023-05-19T19:43:41.120Z,45.48
2023-05-19T19:45:45.304Z,46.31
2023-05-19T19:47:48.570Z,46.07
2023-05-19T19:49:50.183Z,45.88
2023-05-19T19:51:51.885Z,46.36
2023-05-19T19:53:53.596Z,46.54
2023-05-19T19:56:00.030Z,46.08
2023-05-19T19:58:01.680Z,46.97
2023-05-19T20:00:04.664Z,47.64
2023-05-19T20:02:07.046Z,47.81
2023-05-19T20:04:10.328Z,47.98
2023-05-19T20:06:12.186Z,48.26
2023-05-19T20:08:14.794Z,48.54
2023-05-19T20:10:17.775Z,48.49
2023-05-19T20:12:19.385Z,48.90
2023-05-19T20:14:20.981Z,48.78
2023-05-19T20:16:22.561Z,49.25
2023-05-19T20:18:24.280Z,49.83
2023-05-19T20:20:27.197Z,50.03
2023-05-19T20:22:28.822Z,49.80
2023-05-19T20:24:30.485Z,50.40
2023-05-19T20:26:32.375Z,50.44
2023-05-19T20:28:33.945Z,50.63
2023-05-19T20:30:35.692Z,51.07
2023-05-19T20:32:37.536Z,51.46
2023-05-19T20:34:39.290Z,51.04
2023-05-19T20:36:42.804Z,51.48
2023-05-19T20:38:44.376Z,51.37
2023-05-19T20:40:49.673Z,51.78
2023-05-19T20:42:52.395Z,52.06
2023-05-19T20:44:54.056Z,52.30
2023-05-19T20:46:55.706Z,52.67
2023-05-19T20:48:57.551Z,52.61
2023-05-19T20:50:59.470Z,52.60
2023-05-19T20:53:02.471Z,52.76
2023-05-19T20:55:04.771Z,52.68
2023-05-19T20:57:06.698Z,52.92
2023-05-19T20:59:08.316Z,53.41
2023-05-19T21:01:10.318Z,53.77
2023-05-19T21:03:12.526Z,53.22
2023-05-19T21:05:14.122Z,53.29
2023-05-19T21:07:16.057Z,53.68
2023-05-19T21:09:19.340Z,54.12
2023-05-19T21:13:25.739Z,54.37
2023-05-19T21:15:27.396Z,54.18
2023-05-19T21:17:29.471Z,53.95
2023-05-19T21:19:31.729Z,54.04
2023-05-19T21:21:33.861Z,54.44
2023-05-19T21:23:35.764Z,54.14
2023-05-19T21:25:39.512Z,54.17
2023-05-19T21:27:41.170Z,55.15
2023-05-19T21:29:43.044Z,55.52
2023-05-19T21:31:44.700Z,55.63
2023-05-19T21:33:46.643Z,55.42
2023-05-19T21:35:48.364Z,55.31
2023-05-19T21:37:50.088Z,56.21
2023-05-19T21:39:51.868Z,56.32
2023-05-19T21:41:55.003Z,56.27
2023-05-19T21:43:56.888Z,56.14
2023-05-19T21:45:59.201Z,56.61
2023-05-19T21:48:00.921Z,57.68
2023-05-19T21:50:02.831Z,58.13
2023-05-19T21:52:05.433Z,58.04
2023-05-19T21:54:07.033Z,58.16
2023-05-19T21:56:08.877Z,57.60
2023-05-19T21:58:11.995Z,58.11
2023-05-19T22:00:14.672Z,58.82
2023-05-19T22:02:16.764Z,59.18
2023-05-19T22:04:18.977Z,59.07
2023-05-19T22:06:21.343Z,58.95
2023-05-19T22:08:23.024Z,59.15
2023-05-19T22:10:24.585Z,59.25
2023-05-19T22:12:26.432Z,60.07
2023-05-19T22:14:29.485Z,59.83
2023-05-19T22:16:31.234Z,59.72
2023-05-19T22:18:33.289Z,60.31
2023-05-19T22:20:35.132Z,59.75
2023-05-19T22:22:36.923Z,60.53
2023-05-19T22:24:38.858Z,60.33
2023-05-19T22:26:40.715Z,60.48
2023-05-19T22:28:44.257Z,60.16
2023-05-19T22:30:47.664Z,60.78
2023-05-19T22:32:50.153Z,61.20
2023-05-19T22:34:51.958Z,60.27
2023-05-19T22:36:53.652Z,61.05
2023-05-19T22:38:55.290Z,60.64
2023-05-19T22:40:56.958Z,60.32
2023-05-19T22:42:58.808Z,61.42
2023-05-19T22:45:00.512Z,61.27
2023-05-19T22:47:04.165Z,60.59
2023-05-19T22:49:08.146Z,61.00
2023-05-19T22:51:09.889Z,61.64
2023-05-19T22:53:11.594Z,61.34
2023-05-19T22:55:13.479Z,61.62
2023-05-19T22:57:15.345Z,61.55
2023-05-19T22:59:16.980Z,61.91
2023-05-19T23:01:18.984Z,61.83
2023-05-19T23:03:22.361Z,62.07
2023-05-19T23:05:24.072Z,61.79
2023-05-19T23:07:26.056Z,61.58
2023-05-19T23:09:27.578Z,61.47
2023-05-19T23:11:29.466Z,62.13
2023-05-19T23:13:31.405Z,62.06
2023-05-19T23:15:33.234Z,61.76
2023-05-19T23:17:35.326Z,62.08
2023-05-19T23:19:38.705Z,61.46
2023-05-19T23:21:41.394Z,61.61
2023-05-19T23:23:43.138Z,61.37
2023-05-19T23:25:44.713Z,62.05
2023-05-19T23:27:46.600Z,62.04
2023-05-19T23:29:49.024Z,62.61
2023-05-19T23:31:51.083Z,61.86
2023-05-19T23:33:54.218Z,62.33
2023-05-19T23:35:59.556Z,61.97
2023-05-19T23:38:01.253Z,62.01
2023-05-19T23:40:03.148Z,61.91
2023-05-19T23:42:05.306Z,61.75
2023-05-19T23:44:08.689Z,62.94
2023-05-19T23:46:10.739Z,62.85
2023-05-19T23:48:12.578Z,63.60
2023-05-19T23:50:14.151Z,62.98
2023-05-19T23:52:17.122Z,63.18
2023-05-19T23:54:19.058Z,63.53
2023-05-19T23:56:20.686Z,63.58
2023-05-19T23:58:22.598Z,63.00
